sensor_id;sensor_type;location;lat;lon;timestamp;pressure;altitude;pressure_sealevel;temperature;humidity
20023;BME280;10172;42.054;24.546;2022-12-11T00:02:23;96216.84;;;11.22;100.00
20023;BME280;10172;42.054;24.546;2022-12-11T00:04:49;96177.94;;;11.88;100.00
20023;BME280;10172;42.054;24.546;2022-12-11T00:07:14;96197.41;;;11.21;100.00
20023;BME280;10172;42.054;24.546;2022-12-11T00:09:39;96180.13;;;11.59;100.00
20023;BME280;10172;42.054;24.546;2022-12-11T00:12:05;96171.34;;;10.99;100.00
20023;BME280;10172;42.054;24.546;2022-12-11T00:14:31;96172.16;;;11.67;100.00
20023;BME280;10172;42.054;24.546;2022-12-11T00:16:57;96172.59;;;11.13;100.00
20023;BME280;10172;42.054;24.546;2022-12-11T00:19:22;96161.88;;;11.38;100.00
20023;BME280;10172;42.054;24.546;2022-12-11T00:21:48;96167.94;;;11.49;100.00
20023;BME280;10172;42.054;24.546;2022-12-11T00:24:13;96169.63;;;9.94;100.00
20023;BME280;10172;42.054;24.546;2022-12-11T00:26:39;96175.56;;;10.05;100.00
20023;BME280;10172;42.054;24.546;2022-12-11T00:29:04;96175.75;;;10.22;100.00
20023;BME280;10172;42.054;24.546;2022-12-11T00:31:32;96186.59;;;10.89;100.00
20023;BME280;10172;42.054;24.546;2022-12-11T00:34:00;96230.84;;;10.55;100.00
20023;BME280;10172;42.054;24.546;2022-12-11T00:36:25;96219.69;;;10.51;100.00
20023;BME280;10172;42.054;24.546;2022-12-11T00:38:52;96233.13;;;10.67;100.00
20023;BME280;10172;42.054;24.546;2022-12-11T00:41:18;96219.31;;;10.90;100.00
20023;BME280;10172;42.054;24.546;2022-12-11T00:43:44;96211.44;;;10.09;100.00
20023;BME280;10172;42.054;24.546;2022-12-11T00:46:10;96202.31;;;9.49;100.00
20023;BME280;10172;42.054;24.546;2022-12-11T00:48:36;96189.84;;;9.59;100.00
20023;BME280;10172;42.054;24.546;2022-12-11T00:51:02;96191.69;;;9.22;100.00
20023;BME280;10172;42.054;24.546;2022-12-11T00:53:27;96200.13;;;9.35;100.00
20023;BME280;10172;42.054;24.546;2022-12-11T00:55:53;96161.78;;;9.75;100.00
20023;BME280;10172;42.054;24.546;2022-12-11T00:58:19;96169.25;;;10.06;100.00
20023;BME280;10172;42.054;24.546;2022-12-11T01:00:45;96151.72;;;9.96;100.00
20023;BME280;10172;42.054;24.546;2022-12-11T01:03:12;96130.34;;;10.15;100.00
20023;BME280;10172;42.054;24.546;2022-12-11T01:05:38;96151.38;;;10.69;100.00
20023;BME280;10172;42.054;24.546;2022-12-11T01:08:05;96119.03;;;11.58;100.00
20023;BME280;10172;42.054;24.546;2022-12-11T01:10:30;96105.34;;;12.03;100.00
20023;BME280;10172;42.054;24.546;2022-12-11T01:13:02;96152.53;;;11.26;100.00
20023;BME280;10172;42.054;24.546;2022-12-11T01:15:34;96165.06;;;10.04;100.00
20023;BME280;10172;42.054;24.546;2022-12-11T01:18:02;96133.38;;;10.63;100.00
20023;BME280;10172;42.054;24.546;2022-12-11T01:20:28;96123.72;;;10.37;100.00
20023;BME280;10172;42.054;24.546;2022-12-11T01:22:55;96117.34;;;10.12;100.00
20023;BME280;10172;42.054;24.546;2022-12-11T01:25:21;96132.13;;;10.75;100.00
20023;BME280;10172;42.054;24.546;2022-12-11T01:27:49;96127.91;;;10.65;100.00
20023;BME280;10172;42.054;24.546;2022-12-11T01:30:16;96133.25;;;10.65;100.00
20023;BME280;10172;42.054;24.546;2022-12-11T01:32:41;96105.97;;;11.30;100.00
20023;BME280;10172;42.054;24.546;2022-12-11T01:35:08;96102.22;;;10.30;100.00
20023;BME280;10172;42.054;24.546;2022-12-11T01:37:33;96050.81;;;10.65;100.00
20023;BME280;10172;42.054;24.546;2022-12-11T01:40:00;96036.38;;;10.42;100.00
20023;BME280;10172;42.054;24.546;2022-12-11T01:42:26;95980.09;;;10.46;100.00
20023;BME280;10172;42.054;24.546;2022-12-11T01:47:48;95923.97;;;10.99;100.00
20023;BME280;10172;42.054;24.546;2022-12-11T01:50:14;95936.31;;;12.13;100.00
20023;BME280;10172;42.054;24.546;2022-12-11T01:52:40;95926.97;;;13.03;100.00
20023;BME280;10172;42.054;24.546;2022-12-11T01:55:07;95943.34;;;14.13;100.00
20023;BME280;10172;42.054;24.546;2022-12-11T01:57:36;95957.91;;;14.25;100.00
20023;BME280;10172;42.054;24.546;2022-12-11T02:00:03;96023.53;;;14.13;100.00
20023;BME280;10172;42.054;24.546;2022-12-11T02:02:30;96009.16;;;13.69;100.00
20023;BME280;10172;42.054;24.546;2022-12-11T02:04:56;96015.09;;;13.79;100.00
20023;BME280;10172;42.054;24.546;2022-12-11T02:07:22;96029.44;;;13.86;100.00
20023;BME280;10172;42.054;24.546;2022-12-11T02:09:48;96019.78;;;13.24;100.00
20023;BME280;10172;42.054;24.546;2022-12-11T02:15:16;96008.50;;;13.13;100.00
20023;BME280;10172;42.054;24.546;2022-12-11T02:26:17;96037.41;;;11.82;100.00
20023;BME280;10172;42.054;24.546;2022-12-11T02:28:49;96053.06;;;11.85;100.00
20023;BME280;10172;42.054;24.546;2022-12-11T02:31:23;96006.56;;;12.20;100.00
20023;BME280;10172;42.054;24.546;2022-12-11T02:36:40;95990.28;;;11.75;100.00
20023;BME280;10172;42.054;24.546;2022-12-11T02:39:09;95995.38;;;12.41;100.00
20023;BME280;10172;42.054;24.546;2022-12-11T02:41:39;96001.06;;;12.46;100.00
20023;BME280;10172;42.054;24.546;2022-12-11T02:44:10;95970.47;;;11.93;100.00
20023;BME280;10172;42.054;24.546;2022-12-11T02:46:37;96012.91;;;11.87;100.00
20023;BME280;10172;42.054;24.546;2022-12-11T02:49:04;96003.44;;;11.76;100.00
20023;BME280;10172;42.054;24.546;2022-12-11T02:51:34;95993.75;;;12.24;100.00
20023;BME280;10172;42.054;24.546;2022-12-11T02:54:01;95989.63;;;12.68;100.00
20023;BME280;10172;42.054;24.546;2022-12-11T02:57:07;96001.44;;;13.21;100.00
20023;BME280;10172;42.054;24.546;2022-12-11T02:59:38;96018.50;;;13.03;100.00
20023;BME280;10172;42.054;24.546;2022-12-11T03:02:06;96048.69;;;12.41;100.00
20023;BME280;10172;42.054;24.546;2022-12-11T03:04:33;96038.41;;;12.06;100.00
20023;BME280;10172;42.054;24.546;2022-12-11T03:07:12;96052.13;;;12.74;100.00
20023;BME280;10172;42.054;24.546;2022-12-11T03:09:41;96062.03;;;12.09;100.00
20023;BME280;10172;42.054;24.546;2022-12-11T03:12:09;96067.13;;;11.62;100.00
20023;BME280;10172;42.054;24.546;2022-12-11T03:14:36;96060.53;;;12.38;100.00
20023;BME280;10172;42.054;24.546;2022-12-11T03:19:39;96079.03;;;11.33;100.00
20023;BME280;10172;42.054;24.546;2022-12-11T03:22:09;96064.03;;;12.07;100.00
20023;BME280;10172;42.054;24.546;2022-12-11T03:24:43;96079.34;;;12.53;100.00
20023;BME280;10172;42.054;24.546;2022-12-11T03:27:18;96080.28;;;12.84;100.00
20023;BME280;10172;42.054;24.546;2022-12-11T03:30:19;96078.16;;;12.72;100.00
20023;BME280;10172;42.054;24.546;2022-12-11T03:35:33;96074.69;;;11.74;100.00
20023;BME280;10172;42.054;24.546;2022-12-11T03:38:05;96067.34;;;12.33;100.00
20023;BME280;10172;42.054;24.546;2022-12-11T03:40:32;96050.31;;;11.61;100.00
20023;BME280;10172;42.054;24.546;2022-12-11T03:42:59;96078.88;;;11.27;100.00
20023;BME280;10172;42.054;24.546;2022-12-11T03:45:26;96049.38;;;12.35;100.00
20023;BME280;10172;42.054;24.546;2022-12-11T03:47:55;96050.88;;;12.45;100.00
20023;BME280;10172;42.054;24.546;2022-12-11T03:50:23;96044.72;;;12.29;100.00
20023;BME280;10172;42.054;24.546;2022-12-11T03:52:51;96058.69;;;12.47;100.00
20023;BME280;10172;42.054;24.546;2022-12-11T03:55:20;96065.38;;;12.19;100.00
20023;BME280;10172;42.054;24.546;2022-12-11T03:57:47;96069.78;;;12.83;100.00
20023;BME280;10172;42.054;24.546;2022-12-11T04:00:15;96063.03;;;12.48;100.00
20023;BME280;10172;42.054;24.546;2022-12-11T04:02:42;96049.03;;;12.54;100.00
20023;BME280;10172;42.054;24.546;2022-12-11T04:05:09;96030.28;;;12.78;100.00
20023;BME280;10172;42.054;24.546;2022-12-11T04:07:35;96062.88;;;12.33;100.00
20023;BME280;10172;42.054;24.546;2022-12-11T04:10:01;96064.88;;;11.91;100.00
20023;BME280;10172;42.054;24.546;2022-12-11T04:12:27;96033.38;;;12.51;100.00
20023;BME280;10172;42.054;24.546;2022-12-11T04:14:52;96054.03;;;11.92;100.00
20023;BME280;10172;42.054;24.546;2022-12-11T04:17:32;96041.72;;;12.32;100.00
20023;BME280;10172;42.054;24.546;2022-12-11T04:20:18;96026.41;;;12.18;100.00
20023;BME280;10172;42.054;24.546;2022-12-11T04:23:06;96038.75;;;12.82;100.00
20023;BME280;10172;42.054;24.546;2022-12-11T04:25:58;96036.84;;;13.14;100.00
20023;BME280;10172;42.054;24.546;2022-12-11T04:28:27;96051.22;;;13.13;100.00
20023;BME280;10172;42.054;24.546;2022-12-11T04:30:52;96060.97;;;13.60;100.00
20023;BME280;10172;42.054;24.546;2022-12-11T04:33:18;96078.44;;;13.40;100.00
20023;BME280;10172;42.054;24.546;2022-12-11T04:35:43;96052.50;;;13.79;100.00
20023;BME280;10172;42.054;24.546;2022-12-11T04:38:08;96029.69;;;13.46;100.00
20023;BME280;10172;42.054;24.546;2022-12-11T04:40:34;96021.22;;;13.34;100.00
20023;BME280;10172;42.054;24.546;2022-12-11T04:42:59;96037.59;;;13.62;100.00
20023;BME280;10172;42.054;24.546;2022-12-11T04:45:25;96017.22;;;13.61;100.00
20023;BME280;10172;42.054;24.546;2022-12-11T04:47:50;96023.16;;;13.71;100.00
20023;BME280;10172;42.054;24.546;2022-12-11T04:50:16;96017.34;;;13.90;100.00
20023;BME280;10172;42.054;24.546;2022-12-11T04:52:42;96011.63;;;13.78;100.00
20023;BME280;10172;42.054;24.546;2022-12-11T04:55:08;96021.84;;;14.12;100.00
20023;BME280;10172;42.054;24.546;2022-12-11T04:57:34;96023.97;;;14.17;100.00
20023;BME280;10172;42.054;24.546;2022-12-11T04:59:59;96003.84;;;14.06;100.00
20023;BME280;10172;42.054;24.546;2022-12-11T05:02:26;96052.34;;;12.64;100.00
20023;BME280;10172;42.054;24.546;2022-12-11T05:04:51;96046.66;;;13.22;100.00
20023;BME280;10172;42.054;24.546;2022-12-11T05:07:17;96023.66;;;13.44;100.00
20023;BME280;10172;42.054;24.546;2022-12-11T05:09:42;96037.13;;;14.04;100.00
20023;BME280;10172;42.054;24.546;2022-12-11T05:12:08;96031.63;;;14.20;100.00
20023;BME280;10172;42.054;24.546;2022-12-11T05:14:33;96045.50;;;14.61;100.00
20023;BME280;10172;42.054;24.546;2022-12-11T05:16:59;96078.22;;;14.25;100.00
20023;BME280;10172;42.054;24.546;2022-12-11T05:19:25;96077.63;;;13.70;100.00
20023;BME280;10172;42.054;24.546;2022-12-11T05:21:50;96054.59;;;14.52;100.00
20023;BME280;10172;42.054;24.546;2022-12-11T05:24:16;96094.41;;;13.01;100.00
20023;BME280;10172;42.054;24.546;2022-12-11T05:26:41;96081.34;;;13.61;100.00
20023;BME280;10172;42.054;24.546;2022-12-11T05:29:07;96079.22;;;13.17;100.00
20023;BME280;10172;42.054;24.546;2022-12-11T05:31:32;96102.13;;;13.43;100.00
20023;BME280;10172;42.054;24.546;2022-12-11T05:33:57;96090.59;;;13.81;100.00
20023;BME280;10172;42.054;24.546;2022-12-11T05:36:32;96098.69;;;14.18;100.00
20023;BME280;10172;42.054;24.546;2022-12-11T05:38:58;96102.97;;;13.74;100.00
20023;BME280;10172;42.054;24.546;2022-12-11T05:41:27;96111.16;;;13.42;100.00
20023;BME280;10172;42.054;24.546;2022-12-11T05:43:53;96124.53;;;13.72;100.00
20023;BME280;10172;42.054;24.546;2022-12-11T05:46:21;96140.13;;;14.14;100.00
20023;BME280;10172;42.054;24.546;2022-12-11T05:48:48;96138.53;;;14.28;100.00
20023;BME280;10172;42.054;24.546;2022-12-11T05:51:15;96154.69;;;14.80;100.00
20023;BME280;10172;42.054;24.546;2022-12-11T05:53:42;96137.91;;;14.86;100.00
20023;BME280;10172;42.054;24.546;2022-12-11T05:56:18;96135.16;;;14.94;100.00
20023;BME280;10172;42.054;24.546;2022-12-11T05:58:44;96151.34;;;14.41;100.00
20023;BME280;10172;42.054;24.546;2022-12-11T06:01:14;96139.16;;;14.61;100.00
20023;BME280;10172;42.054;24.546;2022-12-11T06:03:39;96164.09;;;15.13;100.00
20023;BME280;10172;42.054;24.546;2022-12-11T06:06:05;96155.13;;;14.69;100.00
20023;BME280;10172;42.054;24.546;2022-12-11T06:08:31;96141.06;;;15.04;100.00
20023;BME280;10172;42.054;24.546;2022-12-11T06:10:58;96149.69;;;14.77;100.00
20023;BME280;10172;42.054;24.546;2022-12-11T06:13:23;96164.44;;;15.25;100.00
20023;BME280;10172;42.054;24.546;2022-12-11T06:15:49;96182.25;;;15.70;100.00
20023;BME280;10172;42.054;24.546;2022-12-11T06:18:15;96182.66;;;15.29;100.00
20023;BME280;10172;42.054;24.546;2022-12-11T06:20:40;96177.63;;;14.97;100.00
20023;BME280;10172;42.054;24.546;2022-12-11T06:23:06;96181.59;;;15.53;100.00
20023;BME280;10172;42.054;24.546;2022-12-11T06:25:31;96190.00;;;15.65;100.00
20023;BME280;10172;42.054;24.546;2022-12-11T06:27:57;96197.25;;;15.41;100.00
20023;BME280;10172;42.054;24.546;2022-12-11T06:30:22;96187.31;;;15.35;100.00
20023;BME280;10172;42.054;24.546;2022-12-11T06:32:48;96180.66;;;15.61;100.00
20023;BME280;10172;42.054;24.546;2022-12-11T06:35:14;96198.50;;;14.79;100.00
20023;BME280;10172;42.054;24.546;2022-12-11T06:37:39;96191.94;;;14.44;100.00
20023;BME280;10172;42.054;24.546;2022-12-11T06:40:06;96166.47;;;14.25;100.00
20023;BME280;10172;42.054;24.546;2022-12-11T06:42:32;96184.13;;;15.17;100.00
20023;BME280;10172;42.054;24.546;2022-12-11T06:44:58;96199.06;;;14.97;100.00
20023;BME280;10172;42.054;24.546;2022-12-11T06:47:28;96190.50;;;15.31;100.00
20023;BME280;10172;42.054;24.546;2022-12-11T06:49:54;96212.78;;;15.31;100.00
20023;BME280;10172;42.054;24.546;2022-12-11T06:52:21;96215.03;;;15.72;100.00
20023;BME280;10172;42.054;24.546;2022-12-11T06:54:47;96204.84;;;15.82;100.00
20023;BME280;10172;42.054;24.546;2022-12-11T06:57:12;96221.72;;;15.76;100.00
20023;BME280;10172;42.054;24.546;2022-12-11T06:59:38;96229.81;;;15.53;100.00
20023;BME280;10172;42.054;24.546;2022-12-11T07:02:03;96230.22;;;15.65;100.00
20023;BME280;10172;42.054;24.546;2022-12-11T07:04:29;96225.84;;;15.64;100.00
20023;BME280;10172;42.054;24.546;2022-12-11T07:06:55;96219.94;;;15.83;100.00
20023;BME280;10172;42.054;24.546;2022-12-11T07:09:21;96217.16;;;16.41;100.00
20023;BME280;10172;42.054;24.546;2022-12-11T07:11:49;96217.25;;;16.90;98.52
20023;BME280;10172;42.054;24.546;2022-12-11T07:14:15;96214.75;;;17.10;96.35
20023;BME280;10172;42.054;24.546;2022-12-11T07:16:40;96224.75;;;16.95;98.70
20023;BME280;10172;42.054;24.546;2022-12-11T07:19:06;96227.75;;;17.06;97.57
20023;BME280;10172;42.054;24.546;2022-12-11T07:21:31;96229.72;;;16.98;98.54
20023;BME280;10172;42.054;24.546;2022-12-11T07:23:57;96221.63;;;17.40;92.98
20023;BME280;10172;42.054;24.546;2022-12-11T07:26:23;96236.13;;;17.73;89.78
20023;BME280;10172;42.054;24.546;2022-12-11T07:28:48;96245.31;;;17.85;93.16
20023;BME280;10172;42.054;24.546;2022-12-11T07:31:19;96237.03;;;17.80;89.29
20023;BME280;10172;42.054;24.546;2022-12-11T07:33:45;96241.28;;;17.68;91.39
20023;BME280;10172;42.054;24.546;2022-12-11T07:36:12;96237.09;;;17.59;90.88
20023;BME280;10172;42.054;24.546;2022-12-11T07:38:38;96232.84;;;17.50;92.28
20023;BME280;10172;42.054;24.546;2022-12-11T07:41:06;96237.81;;;17.74;90.11
20023;BME280;10172;42.054;24.546;2022-12-11T07:43:33;96248.97;;;18.06;90.79
20023;BME280;10172;42.054;24.546;2022-12-11T07:46:16;96235.50;;;18.06;87.96
20023;BME280;10172;42.054;24.546;2022-12-11T07:48:44;96249.81;;;18.13;86.83
20023;BME280;10172;42.054;24.546;2022-12-11T07:51:21;96237.31;;;17.99;86.18
20023;BME280;10172;42.054;24.546;2022-12-11T07:53:49;96246.22;;;17.99;86.63
20023;BME280;10172;42.054;24.546;2022-12-11T07:56:16;96243.19;;;17.74;89.01
20023;BME280;10172;42.054;24.546;2022-12-11T07:58:42;96244.53;;;17.91;87.90
20023;BME280;10172;42.054;24.546;2022-12-11T08:01:20;96250.38;;;18.02;85.88
20023;BME280;10172;42.054;24.546;2022-12-11T08:03:46;96243.25;;;18.22;84.50
20023;BME280;10172;42.054;24.546;2022-12-11T08:06:12;96240.16;;;18.31;85.37
20023;BME280;10172;42.054;24.546;2022-12-11T08:08:38;96251.72;;;18.19;85.33
20023;BME280;10172;42.054;24.546;2022-12-11T08:11:10;96259.78;;;18.60;84.23
20023;BME280;10172;42.054;24.546;2022-12-11T08:13:36;96262.44;;;18.53;85.73
20023;BME280;10172;42.054;24.546;2022-12-11T08:16:06;96259.13;;;18.17;87.31
20023;BME280;10172;42.054;24.546;2022-12-11T08:18:32;96247.91;;;18.00;86.19
20023;BME280;10172;42.054;24.546;2022-12-11T08:20:58;96256.44;;;18.17;83.95
20023;BME280;10172;42.054;24.546;2022-12-11T08:23:24;96242.19;;;18.23;86.80
20023;BME280;10172;42.054;24.546;2022-12-11T08:25:49;96239.88;;;18.54;85.34
20023;BME280;10172;42.054;24.546;2022-12-11T08:28:15;96245.72;;;18.77;83.21
20023;BME280;10172;42.054;24.546;2022-12-11T08:30:40;96236.41;;;18.80;81.25
20023;BME280;10172;42.054;24.546;2022-12-11T08:33:06;96225.88;;;18.78;83.50
20023;BME280;10172;42.054;24.546;2022-12-11T08:35:31;96227.19;;;19.48;86.10
20023;BME280;10172;42.054;24.546;2022-12-11T08:37:57;96228.22;;;19.53;84.51
20023;BME280;10172;42.054;24.546;2022-12-11T08:40:22;96234.41;;;19.28;81.94
20023;BME280;10172;42.054;24.546;2022-12-11T08:42:48;96246.13;;;18.74;83.69
20023;BME280;10172;42.054;24.546;2022-12-11T08:45:13;96256.84;;;18.55;82.09
20023;BME280;10172;42.054;24.546;2022-12-11T08:47:38;96253.25;;;18.95;81.70
20023;BME280;10172;42.054;24.546;2022-12-11T08:50:04;96254.03;;;18.82;81.52
20023;BME280;10172;42.054;24.546;2022-12-11T08:52:30;96261.06;;;18.77;80.70
20023;BME280;10172;42.054;24.546;2022-12-11T08:54:56;96259.38;;;18.69;81.13
20023;BME280;10172;42.054;24.546;2022-12-11T08:57:22;96265.22;;;18.73;80.84
20023;BME280;10172;42.054;24.546;2022-12-11T08:59:48;96270.19;;;18.82;80.57
20023;BME280;10172;42.054;24.546;2022-12-11T09:02:14;96272.38;;;19.33;84.29
20023;BME280;10172;42.054;24.546;2022-12-11T09:04:39;96265.72;;;19.16;80.37
20023;BME280;10172;42.054;24.546;2022-12-11T09:07:05;96279.31;;;18.81;81.93
20023;BME280;10172;42.054;24.546;2022-12-11T09:09:30;96266.44;;;18.77;85.26
20023;BME280;10172;42.054;24.546;2022-12-11T09:11:55;96272.13;;;18.41;84.31
20023;BME280;10172;42.054;24.546;2022-12-11T09:14:21;96247.28;;;18.45;81.42
20023;BME280;10172;42.054;24.546;2022-12-11T09:16:47;96249.97;;;18.45;84.09
20023;BME280;10172;42.054;24.546;2022-12-11T09:19:14;96251.38;;;18.35;86.55
20023;BME280;10172;42.054;24.546;2022-12-11T09:21:40;96240.22;;;18.38;83.91
20023;BME280;10172;42.054;24.546;2022-12-11T09:24:07;96249.31;;;18.37;82.82
20023;BME280;10172;42.054;24.546;2022-12-11T09:26:33;96245.22;;;18.47;83.29
20023;BME280;10172;42.054;24.546;2022-12-11T09:29:02;96243.53;;;18.46;82.03
20023;BME280;10172;42.054;24.546;2022-12-11T09:31:31;96238.66;;;18.63;80.50
20023;BME280;10172;42.054;24.546;2022-12-11T09:34:02;96219.16;;;18.48;83.10
20023;BME280;10172;42.054;24.546;2022-12-11T09:36:28;96229.16;;;18.74;82.60
20023;BME280;10172;42.054;24.546;2022-12-11T09:38:54;96200.16;;;18.82;83.06
20023;BME280;10172;42.054;24.546;2022-12-11T09:41:28;96205.59;;;19.02;81.35
20023;BME280;10172;42.054;24.546;2022-12-11T09:44:19;96204.34;;;19.11;81.35
20023;BME280;10172;42.054;24.546;2022-12-11T09:46:47;96193.75;;;19.23;79.26
20023;BME280;10172;42.054;24.546;2022-12-11T09:49:40;96184.44;;;19.19;79.32
20023;BME280;10172;42.054;24.546;2022-12-11T09:52:13;96180.28;;;19.29;79.23
20023;BME280;10172;42.054;24.546;2022-12-11T09:54:48;96185.69;;;19.23;77.46
20023;BME280;10172;42.054;24.546;2022-12-11T10:00:06;96193.16;;;19.07;78.43
20023;BME280;10172;42.054;24.546;2022-12-11T10:17:06;96183.13;;;19.87;77.85
20023;BME280;10172;42.054;24.546;2022-12-11T10:19:33;96174.91;;;19.62;78.16
20023;BME280;10172;42.054;24.546;2022-12-11T10:22:00;96168.69;;;19.29;77.17
20023;BME280;10172;42.054;24.546;2022-12-11T10:24:38;96159.13;;;19.20;78.00
20023;BME280;10172;42.054;24.546;2022-12-11T10:27:32;96153.34;;;19.29;77.83
20023;BME280;10172;42.054;24.546;2022-12-11T10:35:52;96112.53;;;19.96;71.64
20023;BME280;10172;42.054;24.546;2022-12-11T10:38:20;96099.25;;;20.39;74.52
20023;BME280;10172;42.054;24.546;2022-12-11T10:41:07;96107.84;;;20.61;74.43
20023;BME280;10172;42.054;24.546;2022-12-11T10:43:37;96094.66;;;20.71;71.80
20023;BME280;10172;42.054;24.546;2022-12-11T10:46:06;96102.16;;;20.69;73.03
20023;BME280;10172;42.054;24.546;2022-12-11T10:48:46;96108.56;;;20.99;68.38
20023;BME280;10172;42.054;24.546;2022-12-11T10:51:13;96106.09;;;20.98;71.88
20023;BME280;10172;42.054;24.546;2022-12-11T10:53:39;96103.28;;;20.86;70.30
20023;BME280;10172;42.054;24.546;2022-12-11T10:56:05;96102.88;;;20.82;70.85
20023;BME280;10172;42.054;24.546;2022-12-11T10:58:32;96110.88;;;20.71;69.69
20023;BME280;10172;42.054;24.546;2022-12-11T11:01:17;96108.72;;;21.11;69.97
20023;BME280;10172;42.054;24.546;2022-12-11T11:06:20;96100.72;;;20.98;69.57
20023;BME280;10172;42.054;24.546;2022-12-11T11:08:54;96103.50;;;20.84;69.27
20023;BME280;10172;42.054;24.546;2022-12-11T11:11:36;96103.00;;;20.94;71.24
20023;BME280;10172;42.054;24.546;2022-12-11T11:14:19;96102.84;;;20.89;68.62
20023;BME280;10172;42.054;24.546;2022-12-11T11:16:49;96092.31;;;20.81;68.76
20023;BME280;10172;42.054;24.546;2022-12-11T11:19:43;96092.31;;;20.81;67.04
20023;BME280;10172;42.054;24.546;2022-12-11T11:22:15;96092.19;;;20.69;67.55
20023;BME280;10172;42.054;24.546;2022-12-11T11:25:14;96081.22;;;20.64;68.88
20023;BME280;10172;42.054;24.546;2022-12-11T11:30:36;96070.88;;;20.30;70.02
20023;BME280;10172;42.054;24.546;2022-12-11T11:33:12;96064.19;;;19.95;67.36
20023;BME280;10172;42.054;24.546;2022-12-11T11:35:38;96051.97;;;19.92;69.33
20023;BME280;10172;42.054;24.546;2022-12-11T11:38:17;96051.97;;;19.86;68.53
20023;BME280;10172;42.054;24.546;2022-12-11T11:41:24;96042.09;;;19.73;69.80
20023;BME280;10172;42.054;24.546;2022-12-11T11:43:51;96033.41;;;19.64;68.90
20023;BME280;10172;42.054;24.546;2022-12-11T11:46:32;96033.38;;;19.71;68.87
20023;BME280;10172;42.054;24.546;2022-12-11T11:51:37;96030.31;;;19.61;67.75
20023;BME280;10172;42.054;24.546;2022-12-11T11:54:19;96027.84;;;19.53;66.11
20023;BME280;10172;42.054;24.546;2022-12-11T11:56:49;96021.78;;;19.64;66.59
20023;BME280;10172;42.054;24.546;2022-12-11T11:59:37;96017.19;;;19.71;66.37
20023;BME280;10172;42.054;24.546;2022-12-11T12:02:16;96025.09;;;19.66;65.67
20023;BME280;10172;42.054;24.546;2022-12-11T12:04:43;96024.91;;;19.67;66.19
20023;BME280;10172;42.054;24.546;2022-12-11T12:07:48;96015.91;;;19.80;69.20
20023;BME280;10172;42.054;24.546;2022-12-11T12:10:26;96011.13;;;19.82;67.41
20023;BME280;10172;42.054;24.546;2022-12-11T12:21:11;96021.78;;;19.71;67.04
20023;BME280;10172;42.054;24.546;2022-12-11T12:26:31;96020.28;;;19.81;68.81
20023;BME280;10172;42.054;24.546;2022-12-11T12:31:48;96007.63;;;19.75;68.32
20023;BME280;10172;42.054;24.546;2022-12-11T12:38:03;95993.38;;;19.99;66.38
20023;BME280;10172;42.054;24.546;2022-12-11T12:40:33;95984.53;;;19.86;65.55
20023;BME280;10172;42.054;24.546;2022-12-11T12:51:55;95991.22;;;19.77;66.26
20023;BME280;10172;42.054;24.546;2022-12-11T12:54:22;95988.16;;;19.66;66.50
20023;BME280;10172;42.054;24.546;2022-12-11T12:56:51;95983.22;;;19.63;67.56
20023;BME280;10172;42.054;24.546;2022-12-11T12:59:26;95993.38;;;19.61;67.61
20023;BME280;10172;42.054;24.546;2022-12-11T13:02:02;95998.19;;;19.53;67.33
20023;BME280;10172;42.054;24.546;2022-12-11T13:07:14;95994.53;;;19.41;67.57
20023;BME280;10172;42.054;24.546;2022-12-11T13:09:42;96009.44;;;19.37;68.33
20023;BME280;10172;42.054;24.546;2022-12-11T13:12:20;96011.94;;;19.32;69.66
20023;BME280;10172;42.054;24.546;2022-12-11T13:14:55;96016.72;;;19.30;68.58
20023;BME280;10172;42.054;24.546;2022-12-11T13:19:48;96025.22;;;19.40;70.36
20023;BME280;10172;42.054;24.546;2022-12-11T13:24:57;96039.75;;;19.19;70.67
20023;BME280;10172;42.054;24.546;2022-12-11T13:32:41;96043.91;;;19.15;70.12
20023;BME280;10172;42.054;24.546;2022-12-11T13:35:14;96049.31;;;19.08;70.31
20023;BME280;10172;42.054;24.546;2022-12-11T13:37:42;96043.94;;;18.95;71.97
20023;BME280;10172;42.054;24.546;2022-12-11T13:40:19;96044.91;;;19.40;69.94
20023;BME280;10172;42.054;24.546;2022-12-11T13:42:58;96043.03;;;19.28;70.69
20023;BME280;10172;42.054;24.546;2022-12-11T13:45:28;96035.28;;;18.87;71.70
20023;BME280;10172;42.054;24.546;2022-12-11T13:47:55;96043.94;;;18.82;73.00
20023;BME280;10172;42.054;24.546;2022-12-11T13:50:29;96064.28;;;18.65;73.51
20023;BME280;10172;42.054;24.546;2022-12-11T13:53:00;96074.84;;;18.54;73.69
20023;BME280;10172;42.054;24.546;2022-12-11T13:55:28;96066.34;;;18.57;72.79
20023;BME280;10172;42.054;24.546;2022-12-11T13:57:55;96041.06;;;18.58;72.41
20023;BME280;10172;42.054;24.546;2022-12-11T14:00:29;96053.06;;;18.35;74.79
20023;BME280;10172;42.054;24.546;2022-12-11T14:02:58;96057.63;;;18.81;75.33
20023;BME280;10172;42.054;24.546;2022-12-11T14:05:26;96072.50;;;18.24;71.21
20023;BME280;10172;42.054;24.546;2022-12-11T14:07:57;96074.41;;;18.50;71.54
20023;BME280;10172;42.054;24.546;2022-12-11T14:10:26;96088.25;;;19.06;70.92
20023;BME280;10172;42.054;24.546;2022-12-11T14:15:24;96092.84;;;18.53;71.81
20023;BME280;10172;42.054;24.546;2022-12-11T14:17:51;96086.59;;;18.46;71.91
20023;BME280;10172;42.054;24.546;2022-12-11T14:20:26;96091.00;;;17.86;74.28
20023;BME280;10172;42.054;24.546;2022-12-11T14:23:19;96095.59;;;17.52;78.19
20023;BME280;10172;42.054;24.546;2022-12-11T14:25:56;96091.88;;;18.07;77.80
20023;BME280;10172;42.054;24.546;2022-12-11T14:28:23;96094.31;;;17.88;77.37
20023;BME280;10172;42.054;24.546;2022-12-11T14:30:56;96085.56;;;17.73;77.74
20023;BME280;10172;42.054;24.546;2022-12-11T14:33:27;96081.78;;;18.28;76.80